createdAt,value
2019-05-12T00:01:33.146Z,100466.75
2019-05-12T00:04:00.610Z,100466.39
2019-05-12T00:06:28.530Z,100476.66
2019-05-12T00:08:57.818Z,100469.72
2019-05-12T00:11:22.977Z,100486.52
2019-05-12T00:13:50.435Z,100478.80
2019-05-12T00:16:17.873Z,100493.17
2019-05-12T00:18:48.203Z,100501.00
2019-05-12T00:21:13.709Z,100502.38
2019-05-12T00:23:47.667Z,100500.22
2019-05-12T00:26:14.187Z,100506.89
2019-05-12T00:28:41.633Z,100502.00
2019-05-12T00:31:09.071Z,100504.27
2019-05-12T00:33:38.451Z,100508.97
2019-05-12T00:36:03.994Z,100514.63
2019-05-12T00:38:31.453Z,100510.95
2019-05-12T00:40:58.948Z,100510.37
2019-05-12T00:43:28.198Z,100515.16
2019-05-12T00:45:53.886Z,100515.86
2019-05-12T00:48:21.344Z,100522.66
2019-05-12T00:50:48.815Z,100528.80
2019-05-12T00:53:18.888Z,100528.53
2019-05-12T00:55:44.578Z,100531.30
2019-05-12T00:58:12.034Z,100534.79
2019-05-12T01:00:41.589Z,100539.94
2019-05-12T01:03:08.683Z,100544.41
2019-05-12T01:05:34.503Z,100545.84
2019-05-12T01:08:01.930Z,100545.11
2019-05-12T01:10:29.385Z,100549.06
2019-05-12T01:12:58.138Z,100548.95
2019-05-12T01:15:24.332Z,100557.25
2019-05-12T01:17:51.786Z,100560.52
2019-05-12T01:20:19.234Z,100560.09
2019-05-12T01:22:50.392Z,100558.57
2019-05-12T01:25:14.973Z,100562.68
2019-05-12T01:27:42.485Z,100561.11
2019-05-12T01:30:09.951Z,100564.00
2019-05-12T01:32:38.259Z,100573.52
2019-05-12T01:35:04.906Z,100581.31
2019-05-12T01:37:32.368Z,100583.23
2019-05-12T01:40:00.205Z,100585.36
2019-05-12T01:42:28.653Z,100595.53
2019-05-12T01:44:54.751Z,100601.39
2019-05-12T01:47:22.217Z,100598.11
2019-05-12T01:49:49.677Z,100599.84
2019-05-12T01:52:18.119Z,100608.20
2019-05-12T01:54:45.619Z,100603.09
2019-05-12T01:57:13.055Z,100605.39
2019-05-12T01:59:40.489Z,100614.16
2019-05-12T02:02:08.607Z,100622.71
2019-05-12T02:04:55.085Z,100622.95
2019-05-12T02:07:22.531Z,100629.45
2019-05-12T02:09:50.002Z,100627.71
2019-05-12T02:12:18.278Z,100628.56
2019-05-12T02:14:44.954Z,100637.27
2019-05-12T02:17:12.386Z,100646.11
2019-05-12T02:19:39.842Z,100645.72
2019-05-12T02:22:08.427Z,100650.38
2019-05-12T02:24:34.798Z,100646.27
2019-05-12T02:27:02.257Z,100648.68
2019-05-12T02:29:29.684Z,100656.98
2019-05-12T02:31:58.924Z,100663.39
2019-05-12T02:34:25.595Z,100676.69
2019-05-12T02:36:55.265Z,100674.37
2019-05-12T02:39:19.544Z,100677.28
2019-05-12T02:41:47.032Z,100685.16
2019-05-12T02:44:15.178Z,100677.02
2019-05-12T02:46:44.463Z,100677.31
2019-05-12T02:49:09.393Z,100673.16
2019-05-12T02:51:36.852Z,100679.66
2019-05-12T02:54:05.436Z,100683.47
2019-05-12T02:56:35.192Z,100682.10
2019-05-12T02:58:59.265Z,100691.58
2019-05-12T03:01:26.701Z,100688.96
2019-05-12T03:03:54.955Z,100696.28
2019-05-12T03:06:24.937Z,100695.49
2019-05-12T03:08:49.838Z,100696.58
2019-05-12T03:11:17.351Z,100700.67
2019-05-12T03:13:44.984Z,100706.21
2019-05-12T03:16:15.046Z,100703.89
2019-05-12T03:18:39.760Z,100700.49
2019-05-12T03:21:07.240Z,100711.78
2019-05-12T03:23:35.354Z,100708.53
2019-05-12T03:26:05.254Z,100727.38
2019-05-12T03:28:29.833Z,100728.02
2019-05-12T03:30:58.516Z,100729.02
2019-05-12T03:33:33.576Z,100731.57
2019-05-12T03:35:59.743Z,100734.94
2019-05-12T03:38:20.397Z,100740.50
2019-05-12T03:40:47.869Z,100740.03
2019-05-12T03:43:15.336Z,100746.32
2019-05-12T03:45:45.293Z,100755.81
2019-05-12T03:48:10.268Z,100757.10
2019-05-12T03:50:37.725Z,100756.56
2019-05-12T03:53:10.011Z,100758.63
2019-05-12T03:55:38.062Z,100763.54
2019-05-12T03:58:00.122Z,100764.81
2019-05-12T04:00:27.591Z,100764.72
2019-05-12T04:02:55.701Z,100770.91
2019-05-12T04:05:24.360Z,100772.33
2019-05-12T04:07:54.475Z,100776.28
2019-05-12T04:10:18.532Z,100785.78
2019-05-12T04:12:46.000Z,100787.63
2019-05-12T04:15:15.221Z,100791.07
2019-05-12T04:17:40.949Z,100786.69
2019-05-12T04:20:08.420Z,100790.31
2019-05-12T04:22:35.871Z,100788.94
2019-05-12T04:25:06.229Z,100795.86
2019-05-12T04:27:30.888Z,100799.87
2019-05-12T04:29:58.349Z,100809.52
2019-05-12T04:32:25.794Z,100811.22
2019-05-12T04:34:55.064Z,100821.03
2019-05-12T04:37:22.214Z,100831.47
2019-05-12T04:39:48.949Z,100832.02
2019-05-12T04:42:16.403Z,100833.63
2019-05-12T04:44:44.811Z,100838.70
2019-05-12T04:47:14.356Z,100833.79
2019-05-12T04:49:38.851Z,100840.78
2019-05-12T04:52:06.305Z,100844.37
2019-05-12T04:54:35.587Z,100853.14
2019-05-12T04:57:03.989Z,100856.23
2019-05-12T04:59:28.710Z,100862.16
2019-05-12T05:01:56.139Z,100857.54
2019-05-12T05:04:24.434Z,100869.34
2019-05-12T05:06:54.938Z,100869.45
2019-05-12T05:09:19.570Z,100877.53
2019-05-12T05:11:47.042Z,100873.12
2019-05-12T05:14:14.599Z,100880.70
2019-05-12T05:16:44.902Z,100889.87
2019-05-12T05:19:09.435Z,100902.50
2019-05-12T05:21:36.905Z,100909.08
2019-05-12T05:24:04.388Z,100912.70
2019-05-12T05:26:34.914Z,100919.12
2019-05-12T05:28:59.332Z,100921.70
2019-05-12T05:31:26.798Z,100920.30
2019-05-12T05:33:54.348Z,100920.59
2019-05-12T05:36:24.805Z,100931.85
2019-05-12T05:38:50.922Z,100936.84
2019-05-12T05:43:58.517Z,100940.19
2019-05-12T05:46:24.290Z,100932.19
2019-05-12T05:48:54.125Z,100936.22
2019-05-12T05:51:19.248Z,100947.26
2019-05-12T05:53:49.896Z,100947.91
2019-05-12T05:56:15.415Z,100948.77
2019-05-12T05:58:46.986Z,100951.55
2019-05-12T06:01:09.157Z,100956.44
2019-05-12T06:03:36.606Z,100951.72
2019-05-12T06:06:10.847Z,100954.48
2019-05-12T06:08:33.745Z,100956.63
2019-05-12T06:10:59.091Z,100961.52
2019-05-12T06:13:31.684Z,100959.51
2019-05-12T06:15:54.102Z,100958.20
2019-05-12T06:18:23.813Z,100965.19
2019-05-12T06:20:49.019Z,100968.46
2019-05-12T06:23:16.505Z,100970.75
2019-05-12T06:25:47.353Z,100968.03
2019-05-12T06:28:11.447Z,100967.13
2019-05-12T06:30:44.488Z,100982.73
2019-05-12T06:33:06.624Z,100984.99
2019-05-12T06:35:37.447Z,100990.34
2019-05-12T06:38:02.548Z,100986.47
2019-05-12T06:40:30.932Z,100997.59
2019-05-12T06:42:57.212Z,101004.09
2019-05-12T06:45:28.409Z,101014.18
2019-05-12T06:47:54.070Z,101013.00
2019-05-12T06:50:19.069Z,101013.08
2019-05-12T06:52:48.999Z,101023.84
2019-05-12T06:55:14.702Z,101023.03
2019-05-12T06:57:45.870Z,101026.14
2019-05-12T07:00:09.004Z,101035.85
2019-05-12T07:02:48.364Z,101029.72
2019-05-12T07:05:04.424Z,101029.09
2019-05-12T07:07:34.653Z,101034.20
2019-05-12T07:10:08.045Z,101041.64
2019-05-12T07:12:32.770Z,101036.41
2019-05-12T07:14:57.080Z,101039.17
2019-05-12T07:17:26.810Z,101040.66
2019-05-12T07:19:58.221Z,101037.00
2019-05-12T07:22:25.647Z,101044.19
2019-05-12T07:24:51.853Z,101036.42
2019-05-12T07:27:17.372Z,101045.69
2019-05-12T07:29:44.846Z,101049.00
2019-05-12T07:32:16.262Z,101051.59
2019-05-12T07:34:39.775Z,101056.96
2019-05-12T07:37:07.234Z,101052.60
2019-05-12T07:39:36.961Z,101048.31
2019-05-12T07:42:03.603Z,101046.34
2019-05-12T07:44:32.103Z,101041.92
2019-05-12T07:46:57.357Z,101046.33
2019-05-12T07:49:34.381Z,101052.53
2019-05-12T07:51:54.242Z,101048.77
2019-05-12T07:54:20.573Z,101045.75
2019-05-12T07:56:48.039Z,101044.24
2019-05-12T07:59:15.498Z,101048.84
2019-05-12T08:01:50.175Z,101052.50
2019-05-12T08:04:10.418Z,101055.73
2019-05-12T08:06:41.565Z,101050.03
2019-05-12T08:09:05.334Z,101058.70
2019-05-12T08:11:34.665Z,101065.56
2019-05-12T08:14:00.245Z,101067.52
2019-05-12T08:16:29.655Z,101061.61
2019-05-12T08:18:56.150Z,101058.06
2019-05-12T08:21:24.263Z,101062.80
2019-05-12T08:23:53.298Z,101074.96
2019-05-12T08:26:18.918Z,101076.90
2019-05-12T08:28:46.376Z,101070.61
2019-05-12T08:31:14.212Z,101074.27
2019-05-12T08:33:43.502Z,101076.00
2019-05-12T08:36:16.046Z,101084.37
2019-05-12T08:38:36.248Z,101066.36
2019-05-12T08:41:04.262Z,101068.85
2019-05-12T08:43:31.195Z,101064.50
2019-05-12T08:46:00.182Z,101082.05
2019-05-12T08:48:26.152Z,101070.66
2019-05-12T08:50:54.642Z,101076.85
2019-05-12T08:53:23.048Z,101076.82
2019-05-12T08:55:48.845Z,101087.87
2019-05-12T08:58:30.304Z,101077.55
2019-05-12T09:00:48.773Z,101079.95
2019-05-12T09:03:11.214Z,101070.89
2019-05-12T09:05:38.904Z,101079.05
2019-05-12T09:08:06.117Z,101080.27
2019-05-12T09:10:34.291Z,101081.77
2019-05-12T09:13:03.691Z,101081.75
2019-05-12T09:15:29.081Z,101084.37
2019-05-12T09:17:57.055Z,101087.21
2019-05-12T09:20:24.309Z,101096.52
2019-05-12T09:22:52.810Z,101081.39
2019-05-12T09:25:19.016Z,101084.36
2019-05-12T09:27:49.477Z,101090.96
2019-05-12T09:30:14.257Z,101098.01
2019-05-12T09:32:48.653Z,101095.90
2019-05-12T09:35:08.869Z,101102.41
2019-05-12T09:37:40.207Z,101107.62
2019-05-12T09:40:04.676Z,101101.73
2019-05-12T09:42:33.407Z,101100.77
2019-05-12T09:44:59.966Z,101097.94
2019-05-12T09:47:27.711Z,101097.02
2019-05-12T09:49:54.318Z,101108.71
2019-05-12T09:52:23.233Z,101102.80
2019-05-12T09:54:49.223Z,101104.75
2019-05-12T09:57:16.658Z,101112.16
2019-05-12T09:59:45.913Z,101107.09
2019-05-12T10:02:18.632Z,101108.10
2019-05-12T10:04:39.043Z,101116.55
2019-05-12T10:07:06.458Z,101118.60
2019-05-12T10:09:34.892Z,101109.14
2019-05-12T10:12:03.242Z,101110.12
2019-05-12T10:14:29.893Z,101120.03
2019-05-12T10:16:57.381Z,101129.09
2019-05-12T10:19:24.850Z,101127.97
2019-05-12T10:21:55.152Z,101123.12
2019-05-12T10:24:19.772Z,101128.68
2019-05-12T10:26:49.588Z,101129.94
2019-05-12T10:29:20.399Z,101130.05
2019-05-12T10:31:44.376Z,101124.17
2019-05-12T10:34:15.198Z,101121.00
2019-05-12T10:36:44.868Z,101128.65
2019-05-12T10:39:10.096Z,101123.95
2019-05-12T10:41:37.542Z,101130.61
2019-05-12T10:44:05.553Z,101126.27
2019-05-12T10:46:32.987Z,101122.53
2019-05-12T10:49:00.431Z,101124.32
2019-05-12T10:51:27.879Z,101133.33
2019-05-12T10:54:01.841Z,101140.02
2019-05-12T10:56:24.028Z,101132.33
2019-05-12T10:58:50.352Z,101138.42
2019-05-12T11:01:17.805Z,101142.00
2019-05-12T11:06:39.727Z,101135.27
2019-05-12T11:09:03.815Z,101137.93
2019-05-12T11:11:33.009Z,101132.94
2019-05-12T11:13:58.385Z,101137.24
2019-05-12T11:16:30.742Z,101142.37
2019-05-12T11:18:54.222Z,101151.95
2019-05-12T11:21:20.810Z,101149.42
2019-05-12T11:23:48.269Z,101142.13
2019-05-12T11:26:15.733Z,101141.08
2019-05-12T11:28:43.193Z,101147.33
2019-05-12T11:31:10.653Z,101153.50
2019-05-12T11:33:38.088Z,101155.64
2019-05-12T11:36:06.489Z,101148.06
2019-05-12T11:38:33.948Z,101143.16
2019-05-12T11:41:01.372Z,101146.61
2019-05-12T11:43:29.857Z,101147.80
2019-05-12T11:45:56.274Z,101147.94
2019-05-12T11:48:23.872Z,101145.60
2019-05-12T11:50:51.463Z,101150.31
2019-05-12T11:53:21.841Z,101149.23
2019-05-12T11:55:46.151Z,101148.90
2019-05-12T11:58:13.610Z,101152.57
2019-05-12T12:00:44.235Z,101153.16
2019-05-12T12:03:15.461Z,101154.93
2019-05-12T12:05:39.007Z,101155.87
2019-05-12T12:08:07.147Z,101161.33
2019-05-12T12:10:38.348Z,101169.23
2019-05-12T12:13:03.726Z,101162.67
2019-05-12T12:15:30.410Z,101164.66
2019-05-12T12:17:57.064Z,101167.17
2019-05-12T12:20:24.513Z,101176.47
2019-05-12T12:22:54.117Z,101171.70
2019-05-12T12:25:25.070Z,101176.61
2019-05-12T12:27:53.710Z,101179.94
2019-05-12T12:30:20.227Z,101172.63
2019-05-12T12:32:50.295Z,101175.55
2019-05-12T12:35:15.147Z,101179.13
2019-05-12T12:37:44.840Z,101183.91
2019-05-12T12:40:09.887Z,101168.98
2019-05-12T12:42:44.121Z,101168.34
2019-05-12T12:45:11.062Z,101175.02
2019-05-12T12:47:46.842Z,101176.64
2019-05-12T12:50:06.111Z,101187.48
2019-05-12T12:52:33.649Z,101181.56
2019-05-12T12:55:05.315Z,101195.44
2019-05-12T12:57:28.535Z,101187.51
2019-05-12T12:59:55.991Z,101187.05
2019-05-12T13:02:24.743Z,101185.48
2019-05-12T13:04:50.879Z,101188.31
2019-05-12T13:07:18.318Z,101180.82
2019-05-12T13:09:45.790Z,101187.19
2019-05-12T13:12:17.647Z,101182.96
2019-05-12T13:14:40.667Z,101185.34
2019-05-12T13:17:08.591Z,101179.39
2019-05-12T13:19:36.036Z,101184.10
2019-05-12T13:22:03.796Z,101181.67
2019-05-12T13:24:31.001Z,101183.77
2019-05-12T13:26:58.451Z,101197.31
2019-05-12T13:29:34.542Z,101195.42
2019-05-12T13:31:53.847Z,101193.55
2019-05-12T13:34:20.868Z,101189.17
2019-05-12T13:36:48.310Z,101187.09
2019-05-12T13:39:16.527Z,101195.95
2019-05-12T13:41:43.723Z,101190.30
2019-05-12T13:44:10.742Z,101195.72
2019-05-12T13:46:39.219Z,101193.25
2019-05-12T13:49:06.658Z,101193.66
2019-05-12T13:51:34.130Z,101189.03
2019-05-12T13:54:03.719Z,101189.26
2019-05-12T13:56:32.981Z,101193.67
2019-05-12T13:58:56.569Z,101200.14
2019-05-12T14:01:24.869Z,101205.89
2019-05-12T14:03:53.591Z,101208.16
2019-05-12T14:06:23.004Z,101205.06
2019-05-12T14:08:46.462Z,101210.04
2019-05-12T14:11:13.880Z,101211.70
2019-05-12T14:13:41.329Z,101214.80
2019-05-12T14:16:09.744Z,101198.48
2019-05-12T14:18:37.211Z,101205.25
2019-05-12T14:21:04.651Z,101215.23
2019-05-12T14:23:34.159Z,101209.83
2019-05-12T14:26:02.253Z,101210.07
2019-05-12T14:28:27.041Z,101219.52
2019-05-12T14:30:54.685Z,101218.78
2019-05-12T14:33:24.352Z,101212.84
2019-05-12T14:35:49.419Z,101214.40
2019-05-12T14:38:19.450Z,101215.23
2019-05-12T14:40:44.327Z,101218.07
2019-05-12T14:43:17.037Z,101217.76
2019-05-12T14:45:40.309Z,101217.27
2019-05-12T14:48:09.413Z,101220.42
2019-05-12T14:50:35.203Z,101231.35
2019-05-12T14:53:03.533Z,101228.52
2019-05-12T14:55:30.103Z,101227.13
2019-05-12T14:57:57.562Z,101225.94
2019-05-12T15:00:25.000Z,101236.23
2019-05-12T15:02:53.963Z,101229.64
2019-05-12T15:05:19.945Z,101229.73
2019-05-12T15:07:53.485Z,101231.59
2019-05-12T15:10:14.894Z,101234.99
2019-05-12T15:12:44.063Z,101231.38
2019-05-12T15:15:18.381Z,101228.09
2019-05-12T15:17:37.314Z,101236.06
2019-05-12T15:20:09.137Z,101228.01
2019-05-12T15:22:33.153Z,101226.36
2019-05-12T15:25:02.854Z,101228.80
2019-05-12T15:27:41.314Z,101229.80
2019-05-12T15:29:59.435Z,101241.40
2019-05-12T15:32:23.658Z,101236.38
2019-05-12T15:34:50.306Z,101236.33
2019-05-12T15:37:17.773Z,101238.78
2019-05-12T15:39:45.242Z,101233.95
2019-05-12T15:42:14.229Z,101231.69
2019-05-12T15:44:40.161Z,101241.55
2019-05-12T15:47:07.660Z,101243.52
2019-05-12T15:49:35.104Z,101242.66
2019-05-12T15:52:03.531Z,101252.24
2019-05-12T15:54:31.056Z,101250.09
2019-05-12T15:56:58.154Z,101250.61
2019-05-12T15:59:25.630Z,101263.09
2019-05-12T16:01:57.385Z,101259.89
2019-05-12T16:04:20.511Z,101262.72
2019-05-12T16:06:53.493Z,101270.16
2019-05-12T16:09:15.405Z,101269.12
2019-05-12T16:11:42.912Z,101271.86
2019-05-12T16:14:10.396Z,101274.22
2019-05-12T16:16:42.653Z,101270.41
2019-05-12T16:19:05.370Z,101269.56
2019-05-12T16:21:32.819Z,101275.09
2019-05-12T16:24:02.976Z,101273.86
2019-05-12T16:26:28.165Z,101272.02
2019-05-12T16:29:02.400Z,101276.69
2019-05-12T16:31:23.685Z,101276.04
2019-05-12T16:33:52.830Z,101279.13
2019-05-12T16:36:18.040Z,101281.11
2019-05-12T16:38:50.096Z,101285.45
2019-05-12T16:41:14.276Z,101275.64
2019-05-12T16:43:40.409Z,101279.42
2019-05-12T16:46:07.841Z,101280.98
2019-05-12T16:48:36.306Z,101282.16
2019-05-12T16:51:03.341Z,101281.61
2019-05-12T16:53:30.293Z,101283.91
2019-05-12T16:55:58.237Z,101288.51
2019-05-12T16:58:33.078Z,101287.89
2019-05-12T17:00:53.569Z,101287.68
2019-05-12T17:03:20.632Z,101297.73
2019-05-12T17:05:50.094Z,101287.67
2019-05-12T17:08:15.515Z,101285.30
2019-05-12T17:10:49.716Z,101280.94
2019-05-12T17:13:13.458Z,101289.52
2019-05-12T17:15:40.157Z,101288.72
2019-05-12T17:18:07.597Z,101294.72
2019-05-12T17:20:35.074Z,101294.78
2019-05-12T17:23:03.417Z,101305.75
2019-05-12T17:25:30.044Z,101305.13
2019-05-12T17:28:03.499Z,101306.69
2019-05-12T17:30:25.815Z,101301.16
2019-05-12T17:33:00.565Z,101300.74
2019-05-12T17:35:26.915Z,101303.72
2019-05-12T17:37:48.271Z,101313.52
2019-05-12T17:40:20.136Z,101314.23
2019-05-12T17:42:44.271Z,101316.53
2019-05-12T17:45:15.860Z,101309.70
2019-05-12T17:47:38.237Z,101310.26
2019-05-12T17:50:09.135Z,101318.54
2019-05-12T17:52:33.683Z,101317.14
2019-05-12T17:55:05.853Z,101310.63
2019-05-12T17:57:28.373Z,101315.66
2019-05-12T18:00:03.430Z,101314.23
2019-05-12T18:02:23.724Z,101312.31
2019-05-12T18:04:50.776Z,101316.45
2019-05-12T18:07:19.320Z,101318.34
2019-05-12T18:09:50.496Z,101324.34
2019-05-12T18:12:13.874Z,101327.25
2019-05-12T18:14:46.754Z,101336.36
2019-05-12T18:17:08.832Z,101330.48
2019-05-12T18:19:35.776Z,101332.19
2019-05-12T18:22:09.033Z,101336.41
2019-05-12T18:24:30.767Z,101344.83
2019-05-12T18:27:04.207Z,101343.38
2019-05-12T18:29:25.963Z,101346.05
2019-05-12T18:31:55.542Z,101351.55
2019-05-12T18:34:20.884Z,101350.20
2019-05-12T18:36:49.014Z,101345.72
2019-05-12T18:39:15.848Z,101346.11
2019-05-12T18:41:43.872Z,101352.56
2019-05-12T18:44:18.106Z,101357.45
2019-05-12T18:46:44.920Z,101350.72
2019-05-12T18:49:12.311Z,101352.37
2019-05-12T18:51:34.300Z,101354.16
2019-05-12T18:54:03.600Z,101350.02
2019-05-12T18:56:28.562Z,101358.48
2019-05-12T18:58:56.023Z,101359.56
2019-05-12T19:01:24.460Z,101359.36
2019-05-12T19:03:51.310Z,101361.35
2019-05-12T19:06:18.427Z,101358.63
2019-05-12T19:08:45.886Z,101363.36
2019-05-12T19:11:20.022Z,101368.05
2019-05-12T19:13:45.279Z,101374.97
2019-05-12T19:16:11.282Z,101376.67
2019-05-12T19:18:37.295Z,101380.41
2019-05-12T19:21:04.603Z,101385.17
2019-05-12T19:23:34.999Z,101384.22
2019-05-12T19:25:58.703Z,101386.54
2019-05-12T19:28:26.135Z,101389.17
2019-05-12T19:30:54.619Z,101397.09
2019-05-12T19:33:21.143Z,101394.48
2019-05-12T19:35:50.445Z,101400.06
2019-05-12T19:38:16.086Z,101406.48
2019-05-12T19:40:47.201Z,101406.39
2019-05-12T19:43:11.056Z,101412.89
2019-05-12T19:45:38.553Z,101413.84
2019-05-12T19:48:05.995Z,101413.80
2019-05-12T19:50:33.462Z,101419.31
2019-05-12T19:53:00.987Z,101423.23
2019-05-12T19:55:28.774Z,101416.17
2019-05-12T19:57:56.255Z,101424.11
2019-05-12T20:00:23.707Z,101431.05
2019-05-12T20:02:51.176Z,101428.11
2019-05-12T20:05:18.652Z,101427.79
2019-05-12T20:07:46.103Z,101433.07
2019-05-12T20:10:16.326Z,101439.49
2019-05-12T20:12:43.433Z,101439.04
2019-05-12T20:15:08.508Z,101438.54
2019-05-12T20:17:35.949Z,101441.78
2019-05-12T20:20:04.726Z,101447.27
2019-05-12T20:22:33.274Z,101451.02
2019-05-12T20:24:58.735Z,101456.57
2019-05-12T20:27:26.199Z,101456.87
2019-05-12T20:29:54.064Z,101464.51
2019-05-12T20:32:21.115Z,101465.39
2019-05-12T20:34:51.969Z,101473.48
2019-05-12T20:37:16.798Z,101473.14
2019-05-12T20:39:44.569Z,101473.09
2019-05-12T20:42:10.984Z,101480.02
2019-05-12T20:44:38.518Z,101482.05
2019-05-12T20:47:06.517Z,101480.31
2019-05-12T20:49:33.737Z,101487.41
2019-05-12T20:52:09.328Z,101486.16
2019-05-12T20:54:28.782Z,101487.39
2019-05-12T20:57:02.399Z,101491.41
2019-05-12T20:59:28.055Z,101493.02
2019-05-12T21:01:51.188Z,101496.50
2019-05-12T21:04:22.072Z,101501.25
2019-05-12T21:06:48.474Z,101502.64
2019-05-12T21:09:14.346Z,101507.80
2019-05-12T21:11:41.150Z,101507.44
2019-05-12T21:14:10.415Z,101515.05
2019-05-12T21:16:38.756Z,101512.67
2019-05-12T21:19:10.620Z,101504.52
2019-05-12T21:21:34.241Z,101518.69
2019-05-12T21:23:59.390Z,101521.98
2019-05-12T21:26:28.565Z,101516.66
2019-05-12T21:28:54.008Z,101520.16
2019-05-12T21:31:29.037Z,101526.92
2019-05-12T21:33:48.773Z,101528.25
2019-05-12T21:36:24.159Z,101526.45
2019-05-12T21:38:43.705Z,101534.11
2019-05-12T21:41:13.375Z,101534.05
2019-05-12T21:43:38.603Z,101527.78
2019-05-12T21:46:12.261Z,101527.84
2019-05-12T21:48:34.037Z,101526.20
2019-05-12T21:51:03.950Z,101538.28
2019-05-12T21:53:28.933Z,101533.41
2019-05-12T21:56:04.116Z,101536.28
2019-05-12T21:58:23.861Z,101541.45
2019-05-12T22:00:59.607Z,101536.30
2019-05-12T22:03:20.601Z,101540.06
2019-05-12T22:05:54.632Z,101541.75
2019-05-12T22:08:20.693Z,101546.42
2019-05-12T22:10:43.776Z,101550.31
2019-05-12T22:13:16.956Z,101548.03
2019-05-12T22:15:38.317Z,101551.19
2019-05-12T22:18:05.796Z,101551.87
2019-05-12T22:20:33.245Z,101553.81
2019-05-12T22:23:06.197Z,101561.55
2019-05-12T22:25:28.995Z,101566.00
2019-05-12T22:27:59.358Z,101566.85
2019-05-12T22:30:24.229Z,101574.31
2019-05-12T22:32:51.474Z,101578.94
2019-05-12T22:35:21.921Z,101584.45
2019-05-12T22:37:46.425Z,101592.64
2019-05-12T22:40:17.556Z,101593.69
2019-05-12T22:42:41.393Z,101596.75
2019-05-12T22:45:08.831Z,101590.64
2019-05-12T22:47:36.283Z,101593.80
2019-05-12T22:50:04.153Z,101597.41
2019-05-12T22:52:33.360Z,101595.15
2019-05-12T22:54:59.194Z,101598.64
2019-05-12T22:57:29.160Z,101592.81
2019-05-12T22:59:54.119Z,101602.75
2019-05-12T23:02:27.894Z,101606.55
2019-05-12T23:04:49.056Z,101599.67
2019-05-12T23:07:19.086Z,101596.28
2019-05-12T23:09:44.014Z,101606.08
2019-05-12T23:12:18.101Z,101602.45
2019-05-12T23:14:38.946Z,101602.67
2019-05-12T23:17:07.551Z,101610.61
2019-05-12T23:19:34.110Z,101604.09
2019-05-12T23:22:03.370Z,101598.50
2019-05-12T23:24:30.427Z,101602.46
2019-05-12T23:26:56.663Z,101600.73
2019-05-12T23:29:26.824Z,101598.69
2019-05-12T23:31:53.584Z,101598.94
2019-05-12T23:34:19.067Z,101604.41
2019-05-12T23:36:50.591Z,101600.82
2019-05-12T23:39:14.440Z,101600.45
2019-05-12T23:41:43.623Z,101605.97
2019-05-12T23:44:09.054Z,101603.64
2019-05-12T23:46:36.514Z,101603.56
2019-05-12T23:49:04.000Z,101608.73
